sensor_id;sensor_type;location;lat;lon;timestamp;pressure;altitude;pressure_sealevel;temperature;humidity
64141;BME280;50436;50.618;7.932;2022-09-09T00:02:21;96043.44;;;13.11;100.00
64141;BME280;50436;50.618;7.932;2022-09-09T00:05:15;96026.78;;;13.04;100.00
64141;BME280;50436;50.618;7.932;2022-09-09T00:07:47;96031.94;;;13.00;100.00
64141;BME280;50436;50.618;7.932;2022-09-09T00:21:05;96012.50;;;13.19;100.00
64141;BME280;50436;50.618;7.932;2022-09-09T00:23:39;96024.31;;;13.23;100.00
64141;BME280;50436;50.618;7.932;2022-09-09T00:26:10;96018.63;;;13.40;100.00
64141;BME280;50436;50.618;7.932;2022-09-09T00:28:47;96011.59;;;13.49;100.00
64141;BME280;50436;50.618;7.932;2022-09-09T00:31:17;96020.97;;;13.51;100.00
64141;BME280;50436;50.618;7.932;2022-09-09T00:33:46;96015.59;;;13.51;100.00
64141;BME280;50436;50.618;7.932;2022-09-09T00:36:17;96009.97;;;13.48;100.00
64141;BME280;50436;50.618;7.932;2022-09-09T00:38:52;96024.75;;;13.50;100.00
64141;BME280;50436;50.618;7.932;2022-09-09T00:44:00;96012.09;;;13.56;100.00
64141;BME280;50436;50.618;7.932;2022-09-09T00:49:43;96011.78;;;13.62;100.00
64141;BME280;50436;50.618;7.932;2022-09-09T00:57:32;96010.72;;;13.58;100.00
64141;BME280;50436;50.618;7.932;2022-09-09T01:00:17;96013.38;;;13.63;100.00
64141;BME280;50436;50.618;7.932;2022-09-09T01:03:21;96012.84;;;13.61;100.00
64141;BME280;50436;50.618;7.932;2022-09-09T01:11:07;96012.97;;;13.85;100.00
64141;BME280;50436;50.618;7.932;2022-09-09T01:13:36;96011.59;;;13.88;100.00
64141;BME280;50436;50.618;7.932;2022-09-09T01:16:10;96015.09;;;13.88;100.00
64141;BME280;50436;50.618;7.932;2022-09-09T01:18:52;96017.50;;;13.90;100.00
64141;BME280;50436;50.618;7.932;2022-09-09T01:21:34;96022.06;;;13.94;100.00
64141;BME280;50436;50.618;7.932;2022-09-09T01:26:41;96024.28;;;13.82;100.00
64141;BME280;50436;50.618;7.932;2022-09-09T01:29:17;96023.19;;;13.83;100.00
64141;BME280;50436;50.618;7.932;2022-09-09T01:32:01;96017.59;;;13.80;100.00
64141;BME280;50436;50.618;7.932;2022-09-09T01:34:33;96029.44;;;13.74;100.00
64141;BME280;50436;50.618;7.932;2022-09-09T01:37:12;96015.97;;;13.79;100.00
64141;BME280;50436;50.618;7.932;2022-09-09T01:39:42;96020.28;;;13.80;100.00
64141;BME280;50436;50.618;7.932;2022-09-09T01:42:13;96017.59;;;13.80;100.00
64141;BME280;50436;50.618;7.932;2022-09-09T01:44:40;96019.19;;;13.81;100.00
64141;BME280;50436;50.618;7.932;2022-09-09T01:47:06;96024.03;;;13.79;100.00
64141;BME280;50436;50.618;7.932;2022-09-09T01:49:33;96022.75;;;13.71;100.00
64141;BME280;50436;50.618;7.932;2022-09-09T01:52:05;96010.38;;;13.70;100.00
64141;BME280;50436;50.618;7.932;2022-09-09T01:54:35;96019.78;;;13.73;100.00
64141;BME280;50436;50.618;7.932;2022-09-09T02:02:19;96023.03;;;13.70;100.00
64141;BME280;50436;50.618;7.932;2022-09-09T02:07:55;96025.38;;;13.81;100.00
64141;BME280;50436;50.618;7.932;2022-09-09T02:10:56;96024.19;;;13.92;100.00
64141;BME280;50436;50.618;7.932;2022-09-09T02:13:38;96025.47;;;14.05;100.00
64141;BME280;50436;50.618;7.932;2022-09-09T02:21:54;96022.69;;;14.15;100.00
64141;BME280;50436;50.618;7.932;2022-09-09T02:24:21;96023.75;;;14.19;100.00
64141;BME280;50436;50.618;7.932;2022-09-09T02:26:56;96020.25;;;14.19;100.00
64141;BME280;50436;50.618;7.932;2022-09-09T02:29:27;96030.81;;;14.10;100.00
64141;BME280;50436;50.618;7.932;2022-09-09T02:31:58;96024.88;;;14.08;100.00
64141;BME280;50436;50.618;7.932;2022-09-09T02:34:30;96021.50;;;13.92;100.00
64141;BME280;50436;50.618;7.932;2022-09-09T02:36:58;96026.06;;;13.97;100.00
64141;BME280;50436;50.618;7.932;2022-09-09T02:39:25;96022.34;;;13.93;100.00
64141;BME280;50436;50.618;7.932;2022-09-09T02:41:51;96026.09;;;13.92;100.00
64141;BME280;50436;50.618;7.932;2022-09-09T02:44:18;96019.09;;;13.96;100.00
64141;BME280;50436;50.618;7.932;2022-09-09T02:52:48;96021.91;;;13.76;100.00
64141;BME280;50436;50.618;7.932;2022-09-09T02:55:41;96014.31;;;13.88;100.00
64141;BME280;50436;50.618;7.932;2022-09-09T02:58:14;96014.84;;;13.85;100.00
64141;BME280;50436;50.618;7.932;2022-09-09T03:00:48;96006.78;;;13.85;100.00
64141;BME280;50436;50.618;7.932;2022-09-09T03:03:19;96009.91;;;13.97;100.00
64141;BME280;50436;50.618;7.932;2022-09-09T03:05:47;96010.44;;;13.99;100.00
64141;BME280;50436;50.618;7.932;2022-09-09T03:08:13;96005.59;;;14.01;100.00
64141;BME280;50436;50.618;7.932;2022-09-09T03:10:39;96014.72;;;14.00;100.00
64141;BME280;50436;50.618;7.932;2022-09-09T03:13:05;96007.75;;;13.99;100.00
64141;BME280;50436;50.618;7.932;2022-09-09T03:15:35;96014.22;;;13.98;100.00
64141;BME280;50436;50.618;7.932;2022-09-09T03:18:00;96004.03;;;13.95;100.00
64141;BME280;50436;50.618;7.932;2022-09-09T03:20:28;96005.38;;;13.92;100.00
64141;BME280;50436;50.618;7.932;2022-09-09T03:22:54;95999.47;;;13.90;100.00
64141;BME280;50436;50.618;7.932;2022-09-09T03:25:21;95999.75;;;13.94;100.00
64141;BME280;50436;50.618;7.932;2022-09-09T03:27:50;95994.28;;;13.99;100.00
64141;BME280;50436;50.618;7.932;2022-09-09T03:30:23;96003.50;;;13.93;100.00
64141;BME280;50436;50.618;7.932;2022-09-09T03:32:49;95997.88;;;13.89;100.00
64141;BME280;50436;50.618;7.932;2022-09-09T03:35:15;95999.75;;;13.94;100.00
64141;BME280;50436;50.618;7.932;2022-09-09T03:37:41;96002.22;;;13.85;100.00
64141;BME280;50436;50.618;7.932;2022-09-09T03:40:10;96006.75;;;13.90;100.00
64141;BME280;50436;50.618;7.932;2022-09-09T03:42:36;96013.03;;;13.75;100.00
64141;BME280;50436;50.618;7.932;2022-09-09T03:45:07;96021.91;;;13.76;100.00
64141;BME280;50436;50.618;7.932;2022-09-09T03:47:33;96009.50;;;13.80;100.00
64141;BME280;50436;50.618;7.932;2022-09-09T03:50:05;96012.41;;;13.88;100.00
64141;BME280;50436;50.618;7.932;2022-09-09T03:52:38;96017.59;;;13.80;100.00
64141;BME280;50436;50.618;7.932;2022-09-09T03:55:07;96009.53;;;13.75;100.00
64141;BME280;50436;50.618;7.932;2022-09-09T03:57:34;96014.69;;;13.71;100.00
64141;BME280;50436;50.618;7.932;2022-09-09T04:00:05;96029.06;;;13.46;100.00
64141;BME280;50436;50.618;7.932;2022-09-09T04:02:41;96021.53;;;13.48;100.00
64141;BME280;50436;50.618;7.932;2022-09-09T04:05:13;96022.63;;;13.42;100.00
64141;BME280;50436;50.618;7.932;2022-09-09T04:07:42;96029.03;;;13.51;100.00
64141;BME280;50436;50.618;7.932;2022-09-09T04:10:08;96029.84;;;13.52;100.00
64141;BME280;50436;50.618;7.932;2022-09-09T04:12:35;96020.91;;;13.61;100.00
64141;BME280;50436;50.618;7.932;2022-09-09T04:15:01;96030.13;;;13.50;100.00
64141;BME280;50436;50.618;7.932;2022-09-09T04:17:27;96032.31;;;13.43;100.00
64141;BME280;50436;50.618;7.932;2022-09-09T04:19:53;96040.94;;;13.40;100.00
64141;BME280;50436;50.618;7.932;2022-09-09T04:22:19;96039.56;;;13.37;100.00
64141;BME280;50436;50.618;7.932;2022-09-09T04:24:46;96040.06;;;13.50;100.00
64141;BME280;50436;50.618;7.932;2022-09-09T04:27:11;96037.69;;;13.38;100.00
64141;BME280;50436;50.618;7.932;2022-09-09T04:29:37;96036.09;;;13.37;100.00
64141;BME280;50436;50.618;7.932;2022-09-09T04:32:03;96030.75;;;13.32;100.00
64141;BME280;50436;50.618;7.932;2022-09-09T04:34:30;96034.00;;;13.19;100.00
64141;BME280;50436;50.618;7.932;2022-09-09T04:36:56;96035.06;;;13.23;100.00
64141;BME280;50436;50.618;7.932;2022-09-09T04:39:23;96029.69;;;13.23;100.00
64141;BME280;50436;50.618;7.932;2022-09-09T04:41:48;96035.91;;;13.23;100.00
64141;BME280;50436;50.618;7.932;2022-09-09T04:44:15;96037.75;;;13.18;100.00
64141;BME280;50436;50.618;7.932;2022-09-09T04:46:41;96039.38;;;13.19;100.00
64141;BME280;50436;50.618;7.932;2022-09-09T04:49:07;96046.09;;;13.21;100.00
64141;BME280;50436;50.618;7.932;2022-09-09T04:51:33;96045.28;;;13.26;100.00
64141;BME280;50436;50.618;7.932;2022-09-09T04:53:58;96046.03;;;13.36;100.00
64141;BME280;50436;50.618;7.932;2022-09-09T04:56:24;96037.16;;;13.41;100.00
64141;BME280;50436;50.618;7.932;2022-09-09T04:58:55;96049.50;;;13.42;100.00
64141;BME280;50436;50.618;7.932;2022-09-09T05:01:25;96048.44;;;13.38;100.00
64141;BME280;50436;50.618;7.932;2022-09-09T05:03:58;96035.28;;;13.36;100.00
64141;BME280;50436;50.618;7.932;2022-09-09T05:06:27;96040.13;;;13.40;100.00
64141;BME280;50436;50.618;7.932;2022-09-09T05:08:56;96043.56;;;13.45;100.00
64141;BME280;50436;50.618;7.932;2022-09-09T05:11:28;96038.19;;;13.45;100.00
64141;BME280;50436;50.618;7.932;2022-09-09T05:13:59;96043.91;;;13.38;100.00
64141;BME280;50436;50.618;7.932;2022-09-09T05:16:25;96040.94;;;13.40;100.00
64141;BME280;50436;50.618;7.932;2022-09-09T05:18:52;96037.69;;;13.43;100.00
64141;BME280;50436;50.618;7.932;2022-09-09T05:21:19;96031.19;;;13.54;100.00
64141;BME280;50436;50.618;7.932;2022-09-09T05:23:45;96032.81;;;13.50;100.00
64141;BME280;50436;50.618;7.932;2022-09-09T05:26:14;96041.94;;;13.54;100.00
64141;BME280;50436;50.618;7.932;2022-09-09T05:28:40;96041.34;;;13.62;100.00
64141;BME280;50436;50.618;7.932;2022-09-09T05:31:08;96030.56;;;13.68;100.00
64141;BME280;50436;50.618;7.932;2022-09-09T05:33:35;96040.84;;;13.55;100.00
64141;BME280;50436;50.618;7.932;2022-09-09T05:36:04;96031.19;;;13.54;100.00
64141;BME280;50436;50.618;7.932;2022-09-09T05:38:31;96040.06;;;13.50;100.00
64141;BME280;50436;50.618;7.932;2022-09-09T05:40:59;96046.97;;;13.61;100.00
64141;BME280;50436;50.618;7.932;2022-09-09T05:43:26;96040.28;;;13.63;100.00
64141;BME280;50436;50.618;7.932;2022-09-09T05:46:09;96030.53;;;13.73;100.00
64141;BME280;50436;50.618;7.932;2022-09-09T05:48:38;96031.03;;;13.80;100.00
64141;BME280;50436;50.618;7.932;2022-09-09T05:51:05;96048.28;;;13.69;100.00
64141;BME280;50436;50.618;7.932;2022-09-09T05:53:34;96036.81;;;13.53;100.00
64141;BME280;50436;50.618;7.932;2022-09-09T05:56:06;96048.72;;;13.42;100.00
64141;BME280;50436;50.618;7.932;2022-09-09T05:58:34;96042.78;;;13.45;100.00
64141;BME280;50436;50.618;7.932;2022-09-09T06:01:02;96053.28;;;13.41;100.00
64141;BME280;50436;50.618;7.932;2022-09-09T06:03:28;96045.19;;;13.46;100.00
64141;BME280;50436;50.618;7.932;2022-09-09T06:05:58;96038.69;;;13.52;100.00
64141;BME280;50436;50.618;7.932;2022-09-09T06:08:24;96038.69;;;13.52;100.00
64141;BME280;50436;50.618;7.932;2022-09-09T06:10:50;96039.81;;;13.46;100.00
64141;BME280;50436;50.618;7.932;2022-09-09T06:13:17;96044.06;;;13.52;100.00
64141;BME280;50436;50.618;7.932;2022-09-09T06:15:52;96035.47;;;13.55;100.00
64141;BME280;50436;50.618;7.932;2022-09-09T06:18:18;96037.59;;;13.58;100.00
64141;BME280;50436;50.618;7.932;2022-09-09T06:20:58;96031.94;;;13.60;100.00
64141;BME280;50436;50.618;7.932;2022-09-09T06:23:24;96033.22;;;13.73;100.00
64141;BME280;50436;50.618;7.932;2022-09-09T06:25:51;96032.66;;;13.76;100.00
64141;BME280;50436;50.618;7.932;2022-09-09T06:28:18;96031.56;;;13.77;100.00
64141;BME280;50436;50.618;7.932;2022-09-09T06:30:44;96031.91;;;14.09;100.00
64141;BME280;50436;50.618;7.932;2022-09-09T06:33:11;96041.50;;;14.15;100.00
64141;BME280;50436;50.618;7.932;2022-09-09T06:35:37;96036.41;;;14.19;100.00
64141;BME280;50436;50.618;7.932;2022-09-09T06:38:03;96032.31;;;14.21;100.00
64141;BME280;50436;50.618;7.932;2022-09-09T06:40:29;96035.31;;;14.20;100.00
64141;BME280;50436;50.618;7.932;2022-09-09T06:42:59;96031.63;;;14.11;100.00
64141;BME280;50436;50.618;7.932;2022-09-09T06:45:34;96028.41;;;14.09;100.00
64141;BME280;50436;50.618;7.932;2022-09-09T06:48:02;96024.25;;;14.21;100.00
64141;BME280;50436;50.618;7.932;2022-09-09T06:50:28;96025.63;;;14.19;100.00
64141;BME280;50436;50.618;7.932;2022-09-09T06:52:54;96031.72;;;14.30;100.00
64141;BME280;50436;50.618;7.932;2022-09-09T06:55:20;96042.97;;;14.37;100.00
64141;BME280;50436;50.618;7.932;2022-09-09T06:57:46;96040.50;;;14.45;100.00
64141;BME280;50436;50.618;7.932;2022-09-09T07:00:16;96027.03;;;14.45;100.00
64141;BME280;50436;50.618;7.932;2022-09-09T07:02:42;96032.59;;;14.54;100.00
64141;BME280;50436;50.618;7.932;2022-09-09T07:05:09;96038.56;;;14.51;100.00
64141;BME280;50436;50.618;7.932;2022-09-09T07:07:35;96025.53;;;14.29;100.00
64141;BME280;50436;50.618;7.932;2022-09-09T07:10:00;96029.81;;;14.01;100.00
64141;BME280;50436;50.618;7.932;2022-09-09T07:12:27;96021.47;;;14.03;100.00
64141;BME280;50436;50.618;7.932;2022-09-09T07:14:57;96034.03;;;14.12;100.00
64141;BME280;50436;50.618;7.932;2022-09-09T07:17:23;96026.94;;;14.21;100.00
64141;BME280;50436;50.618;7.932;2022-09-09T07:19:48;96035.53;;;14.23;100.00
64141;BME280;50436;50.618;7.932;2022-09-09T07:22:15;96038.75;;;14.26;100.00
64141;BME280;50436;50.618;7.932;2022-09-09T07:24:42;96028.19;;;14.34;100.00
64141;BME280;50436;50.618;7.932;2022-09-09T07:27:09;96027.28;;;14.44;100.00
64141;BME280;50436;50.618;7.932;2022-09-09T07:29:35;96029.06;;;14.59;100.00
64141;BME280;50436;50.618;7.932;2022-09-09T07:32:02;96027.75;;;14.56;100.00
64141;BME280;50436;50.618;7.932;2022-09-09T07:34:32;96023.59;;;14.69;100.00
64141;BME280;50436;50.618;7.932;2022-09-09T07:36:58;96029.22;;;14.72;100.00
64141;BME280;50436;50.618;7.932;2022-09-09T07:39:23;96018.56;;;14.86;100.00
64141;BME280;50436;50.618;7.932;2022-09-09T07:41:52;96020.06;;;14.97;100.00
64141;BME280;50436;50.618;7.932;2022-09-09T07:44:22;96025.16;;;14.99;100.00
64141;BME280;50436;50.618;7.932;2022-09-09T07:46:59;96025.78;;;15.15;100.00
64141;BME280;50436;50.618;7.932;2022-09-09T07:49:30;96028.97;;;15.17;100.00
64141;BME280;50436;50.618;7.932;2022-09-09T07:51:57;96038.88;;;15.02;100.00
64141;BME280;50436;50.618;7.932;2022-09-09T07:54:23;96041.19;;;14.85;100.00
64141;BME280;50436;50.618;7.932;2022-09-09T07:56:52;96039.41;;;14.75;100.00
64141;BME280;50436;50.618;7.932;2022-09-09T07:59:19;96049.16;;;14.71;100.00
64141;BME280;50436;50.618;7.932;2022-09-09T08:01:50;96040.72;;;14.78;100.00
64141;BME280;50436;50.618;7.932;2022-09-09T08:04:21;96050.16;;;14.81;100.00
64141;BME280;50436;50.618;7.932;2022-09-09T08:06:52;96050.84;;;15.15;100.00
64141;BME280;50436;50.618;7.932;2022-09-09T08:09:20;96050.66;;;15.30;100.00
64141;BME280;50436;50.618;7.932;2022-09-09T08:11:47;96059.63;;;15.26;100.00
64141;BME280;50436;50.618;7.932;2022-09-09T08:14:13;96063.78;;;15.37;100.00
64141;BME280;50436;50.618;7.932;2022-09-09T08:16:43;96049.81;;;15.54;100.00
64141;BME280;50436;50.618;7.932;2022-09-09T08:19:10;96052.22;;;15.55;100.00
64141;BME280;50436;50.618;7.932;2022-09-09T08:21:38;96052.22;;;15.55;100.00
64141;BME280;50436;50.618;7.932;2022-09-09T08:24:06;96051.56;;;15.45;100.00
64141;BME280;50436;50.618;7.932;2022-09-09T08:26:35;96046.75;;;15.66;100.00
64141;BME280;50436;50.618;7.932;2022-09-09T08:29:04;96049.59;;;15.93;100.00
64141;BME280;50436;50.618;7.932;2022-09-09T08:31:33;96048.50;;;16.13;100.00
64141;BME280;50436;50.618;7.932;2022-09-09T08:33:59;96051.41;;;16.16;100.00
64141;BME280;50436;50.618;7.932;2022-09-09T08:36:29;96056.53;;;16.51;100.00
64141;BME280;50436;50.618;7.932;2022-09-09T08:38:57;96048.91;;;16.71;100.00
64141;BME280;50436;50.618;7.932;2022-09-09T08:58:05;96064.59;;;16.18;100.00
64141;BME280;50436;50.618;7.932;2022-09-09T09:00:47;96057.66;;;16.82;100.00
64141;BME280;50436;50.618;7.932;2022-09-09T09:11:21;96052.47;;;18.04;100.00
64141;BME280;50436;50.618;7.932;2022-09-09T09:13:58;96050.16;;;18.12;100.00
64141;BME280;50436;50.618;7.932;2022-09-09T09:19:28;96052.63;;;17.86;100.00
64141;BME280;50436;50.618;7.932;2022-09-09T09:27:15;96082.00;;;17.10;100.00
64141;BME280;50436;50.618;7.932;2022-09-09T09:29:48;96069.88;;;17.48;100.00
64141;BME280;50436;50.618;7.932;2022-09-09T09:32:18;96064.03;;;17.96;100.00
64141;BME280;50436;50.618;7.932;2022-09-09T09:34:56;96071.41;;;18.41;100.00
64141;BME280;50436;50.618;7.932;2022-09-09T09:37:29;96063.28;;;17.82;100.00
64141;BME280;50436;50.618;7.932;2022-09-09T09:40:14;96063.84;;;17.93;100.00
64141;BME280;50436;50.618;7.932;2022-09-09T09:42:49;96073.28;;;18.18;100.00
64141;BME280;50436;50.618;7.932;2022-09-09T09:45:25;96065.88;;;17.60;100.00
64141;BME280;50436;50.618;7.932;2022-09-09T09:48:00;96071.50;;;17.22;100.00
64141;BME280;50436;50.618;7.932;2022-09-09T09:50:28;96079.97;;;17.02;100.00
64141;BME280;50436;50.618;7.932;2022-09-09T09:52:56;96086.25;;;17.43;100.00
64141;BME280;50436;50.618;7.932;2022-09-09T09:55:23;96055.00;;;18.01;100.00
64141;BME280;50436;50.618;7.932;2022-09-09T09:57:50;96062.28;;;18.59;100.00
64141;BME280;50436;50.618;7.932;2022-09-09T10:00:19;96057.03;;;19.07;99.23
64141;BME280;50436;50.618;7.932;2022-09-09T10:02:53;96066.56;;;19.05;99.71
64141;BME280;50436;50.618;7.932;2022-09-09T10:05:30;96065.84;;;18.90;97.48
64141;BME280;50436;50.618;7.932;2022-09-09T10:08:11;96069.72;;;19.69;95.65
64141;BME280;50436;50.618;7.932;2022-09-09T10:10:46;96060.50;;;19.39;96.84
64141;BME280;50436;50.618;7.932;2022-09-09T10:13:22;96042.53;;;19.20;97.93
64141;BME280;50436;50.618;7.932;2022-09-09T10:27:18;96036.44;;;21.69;84.49
64141;BME280;50436;50.618;7.932;2022-09-09T10:30:06;96035.75;;;22.65;77.85
64141;BME280;50436;50.618;7.932;2022-09-09T10:32:48;96028.75;;;23.46;63.10
64141;BME280;50436;50.618;7.932;2022-09-09T10:38:17;96036.09;;;21.80;73.04
64141;BME280;50436;50.618;7.932;2022-09-09T10:46:14;96026.63;;;26.14;53.30
64141;BME280;50436;50.618;7.932;2022-09-09T10:56:54;96015.19;;;21.63;79.02
64141;BME280;50436;50.618;7.932;2022-09-09T10:59:31;96024.78;;;21.90;76.27
64141;BME280;50436;50.618;7.932;2022-09-09T11:02:28;96025.34;;;22.25;73.53
64141;BME280;50436;50.618;7.932;2022-09-09T11:05:03;96027.63;;;21.93;77.28
64141;BME280;50436;50.618;7.932;2022-09-09T11:07:36;96014.75;;;25.24;55.69
64141;BME280;50436;50.618;7.932;2022-09-09T11:10:38;96013.56;;;28.29;42.06
64141;BME280;50436;50.618;7.932;2022-09-09T11:13:04;96029.41;;;26.53;44.38
64141;BME280;50436;50.618;7.932;2022-09-09T11:15:42;96001.91;;;31.57;34.28
64141;BME280;50436;50.618;7.932;2022-09-09T11:18:15;95997.06;;;30.72;33.52
64141;BME280;50436;50.618;7.932;2022-09-09T11:20:44;95995.59;;;31.36;31.10
64141;BME280;50436;50.618;7.932;2022-09-09T11:23:24;96000.59;;;29.93;33.41
64141;BME280;50436;50.618;7.932;2022-09-09T11:25:58;96009.13;;;28.51;35.81
64141;BME280;50436;50.618;7.932;2022-09-09T11:31:44;96014.16;;;24.31;57.30
64141;BME280;50436;50.618;7.932;2022-09-09T11:34:23;96010.78;;;24.22;58.06
64141;BME280;50436;50.618;7.932;2022-09-09T11:36:56;96015.28;;;25.30;50.96
64141;BME280;50436;50.618;7.932;2022-09-09T11:42:05;96004.59;;;26.46;44.12
64141;BME280;50436;50.618;7.932;2022-09-09T11:44:32;96016.34;;;24.37;53.92
64141;BME280;50436;50.618;7.932;2022-09-09T11:46:57;96024.28;;;22.38;67.99
64141;BME280;50436;50.618;7.932;2022-09-09T11:49:40;96018.06;;;23.28;67.10
64141;BME280;50436;50.618;7.932;2022-09-09T11:52:19;95998.00;;;29.59;38.65
64141;BME280;50436;50.618;7.932;2022-09-09T11:54:48;96014.34;;;28.64;38.62
64141;BME280;50436;50.618;7.932;2022-09-09T11:57:32;96008.19;;;25.76;46.97
64141;BME280;50436;50.618;7.932;2022-09-09T12:00:00;96011.78;;;24.57;57.34
64141;BME280;50436;50.618;7.932;2022-09-09T12:02:48;96026.47;;;24.25;60.75
64141;BME280;50436;50.618;7.932;2022-09-09T12:05:14;96023.50;;;23.89;62.42
64141;BME280;50436;50.618;7.932;2022-09-09T12:07:55;96019.38;;;25.71;50.85
64141;BME280;50436;50.618;7.932;2022-09-09T12:10:28;96006.97;;;30.08;36.92
64141;BME280;50436;50.618;7.932;2022-09-09T12:12:54;95994.03;;;31.45;32.80
64141;BME280;50436;50.618;7.932;2022-09-09T12:15:28;95999.94;;;31.86;31.93
64141;BME280;50436;50.618;7.932;2022-09-09T12:17:56;95992.97;;;32.69;30.98
64141;BME280;50436;50.618;7.932;2022-09-09T12:20:36;95996.38;;;35.01;26.81
64141;BME280;50436;50.618;7.932;2022-09-09T12:25:51;96000.44;;;36.41;24.66
64141;BME280;50436;50.618;7.932;2022-09-09T12:31:07;96000.34;;;31.46;31.15
64141;BME280;50436;50.618;7.932;2022-09-09T12:33:39;95987.59;;;32.20;30.01
64141;BME280;50436;50.618;7.932;2022-09-09T12:36:17;96006.41;;;27.45;37.18
64141;BME280;50436;50.618;7.932;2022-09-09T12:38:44;95994.06;;;26.48;39.37
64141;BME280;50436;50.618;7.932;2022-09-09T12:41:36;96009.72;;;25.10;46.89
64141;BME280;50436;50.618;7.932;2022-09-09T12:44:08;95993.47;;;26.77;42.12
64141;BME280;50436;50.618;7.932;2022-09-09T12:46:41;95989.97;;;26.80;40.75
64141;BME280;50436;50.618;7.932;2022-09-09T12:52:06;95987.38;;;30.27;33.59
64141;BME280;50436;50.618;7.932;2022-09-09T12:54:36;95977.84;;;31.26;31.89
64141;BME280;50436;50.618;7.932;2022-09-09T12:57:04;95986.66;;;27.13;37.77
64141;BME280;50436;50.618;7.932;2022-09-09T12:59:38;95989.00;;;29.22;34.97
64141;BME280;50436;50.618;7.932;2022-09-09T13:02:22;95983.41;;;33.89;27.88
64141;BME280;50436;50.618;7.932;2022-09-09T13:04:49;95978.66;;;35.69;26.18
64141;BME280;50436;50.618;7.932;2022-09-09T13:07:16;95973.28;;;36.05;24.91
64141;BME280;50436;50.618;7.932;2022-09-09T13:09:44;95970.44;;;33.78;26.57
64141;BME280;50436;50.618;7.932;2022-09-09T13:12:21;95974.81;;;28.42;33.63
64141;BME280;50436;50.618;7.932;2022-09-09T13:14:55;95973.28;;;30.46;31.77
64141;BME280;50436;50.618;7.932;2022-09-09T13:17:25;95963.63;;;32.86;28.76
64141;BME280;50436;50.618;7.932;2022-09-09T13:19:55;95971.22;;;33.79;26.30
64141;BME280;50436;50.618;7.932;2022-09-09T13:22:37;95968.63;;;34.40;25.15
64141;BME280;50436;50.618;7.932;2022-09-09T13:27:38;95958.63;;;37.33;22.77
64141;BME280;50436;50.618;7.932;2022-09-09T13:30:39;95950.63;;;35.80;22.98
64141;BME280;50436;50.618;7.932;2022-09-09T13:33:21;95949.84;;;36.03;24.40
64141;BME280;50436;50.618;7.932;2022-09-09T13:38:16;95956.06;;;35.87;23.62
64141;BME280;50436;50.618;7.932;2022-09-09T13:40:57;95944.06;;;37.09;22.12
64141;BME280;50436;50.618;7.932;2022-09-09T13:43:25;95947.94;;;38.38;21.46
64141;BME280;50436;50.618;7.932;2022-09-09T13:45:53;95944.66;;;36.24;23.17
64141;BME280;50436;50.618;7.932;2022-09-09T13:48:19;95946.88;;;36.13;23.51
64141;BME280;50436;50.618;7.932;2022-09-09T13:50:54;95937.34;;;34.63;24.13
64141;BME280;50436;50.618;7.932;2022-09-09T13:53:20;95944.22;;;33.83;25.63
64141;BME280;50436;50.618;7.932;2022-09-09T13:55:46;95944.63;;;31.86;27.92
64141;BME280;50436;50.618;7.932;2022-09-09T13:58:16;95953.72;;;29.38;31.20
64141;BME280;50436;50.618;7.932;2022-09-09T14:00:43;95940.28;;;30.78;29.59
64141;BME280;50436;50.618;7.932;2022-09-09T14:03:09;95942.50;;;33.07;26.22
64141;BME280;50436;50.618;7.932;2022-09-09T14:05:35;95939.06;;;30.72;29.43
64141;BME280;50436;50.618;7.932;2022-09-09T14:08:03;95957.63;;;28.89;31.48
64141;BME280;50436;50.618;7.932;2022-09-09T14:10:29;95950.44;;;28.10;33.53
64141;BME280;50436;50.618;7.932;2022-09-09T14:12:55;95964.22;;;29.69;30.05
64141;BME280;50436;50.618;7.932;2022-09-09T14:15:21;95942.59;;;28.42;32.77
64141;BME280;50436;50.618;7.932;2022-09-09T14:17:49;95935.56;;;27.32;34.43
64141;BME280;50436;50.618;7.932;2022-09-09T14:20:15;95938.63;;;26.00;37.74
64141;BME280;50436;50.618;7.932;2022-09-09T14:22:42;95923.69;;;26.78;37.95
64141;BME280;50436;50.618;7.932;2022-09-09T14:25:09;95926.31;;;27.43;36.25
64141;BME280;50436;50.618;7.932;2022-09-09T14:27:34;95928.38;;;27.01;36.96
64141;BME280;50436;50.618;7.932;2022-09-09T14:30:00;95915.34;;;27.43;36.86
64141;BME280;50436;50.618;7.932;2022-09-09T14:32:26;95930.44;;;25.49;40.22
64141;BME280;50436;50.618;7.932;2022-09-09T14:34:52;95934.84;;;24.15;43.48
64141;BME280;50436;50.618;7.932;2022-09-09T14:37:18;95930.44;;;24.38;45.27
64141;BME280;50436;50.618;7.932;2022-09-09T14:39:43;95928.72;;;24.62;45.77
64141;BME280;50436;50.618;7.932;2022-09-09T14:42:16;95935.84;;;24.23;47.77
64141;BME280;50436;50.618;7.932;2022-09-09T14:44:41;95939.88;;;23.73;50.59
64141;BME280;50436;50.618;7.932;2022-09-09T14:47:08;95930.59;;;23.00;55.01
64141;BME280;50436;50.618;7.932;2022-09-09T14:49:34;95934.88;;;22.65;60.13
64141;BME280;50436;50.618;7.932;2022-09-09T14:52:00;95947.22;;;21.75;74.53
64141;BME280;50436;50.618;7.932;2022-09-09T14:54:26;95937.13;;;20.49;84.52
64141;BME280;50436;50.618;7.932;2022-09-09T14:56:51;95964.81;;;20.16;88.00
64141;BME280;50436;50.618;7.932;2022-09-09T14:59:17;95951.09;;;19.69;90.79
64141;BME280;50436;50.618;7.932;2022-09-09T15:01:42;95961.25;;;19.38;96.50
64141;BME280;50436;50.618;7.932;2022-09-09T15:04:11;95962.38;;;18.88;100.00
64141;BME280;50436;50.618;7.932;2022-09-09T15:06:37;95976.00;;;18.75;100.00
64141;BME280;50436;50.618;7.932;2022-09-09T15:09:05;95982.63;;;18.60;100.00
64141;BME280;50436;50.618;7.932;2022-09-09T15:11:33;96014.69;;;18.67;100.00
64141;BME280;50436;50.618;7.932;2022-09-09T15:14:03;96013.78;;;18.71;100.00
64141;BME280;50436;50.618;7.932;2022-09-09T15:16:29;96034.41;;;18.81;100.00
64141;BME280;50436;50.618;7.932;2022-09-09T15:18:56;96051.25;;;19.00;100.00
64141;BME280;50436;50.618;7.932;2022-09-09T15:21:28;96055.09;;;18.32;100.00